sensor_id;sensor_type;location;lat;lon;timestamp;P1;durP1;ratioP1;P2;durP2;ratioP2
359;SDS011;168;48.872;9.226;2023-09-12T00:02:17;14.60;;;13.03;;
359;SDS011;168;48.872;9.226;2023-09-12T00:04:44;12.10;;;10.90;;
359;SDS011;168;48.872;9.226;2023-09-12T00:07:12;12.27;;;10.80;;
359;SDS011;168;48.872;9.226;2023-09-12T00:09:39;13.80;;;12.50;;
359;SDS011;168;48.872;9.226;2023-09-12T00:12:08;13.87;;;12.47;;
359;SDS011;168;48.872;9.226;2023-09-12T00:14:35;12.90;;;11.63;;
359;SDS011;168;48.872;9.226;2023-09-12T00:17:03;13.13;;;11.37;;
359;SDS011;168;48.872;9.226;2023-09-12T00:19:30;13.30;;;10.87;;
359;SDS011;168;48.872;9.226;2023-09-12T00:21:58;12.30;;;11.20;;
359;SDS011;168;48.872;9.226;2023-09-12T00:24:26;12.23;;;10.97;;
359;SDS011;168;48.872;9.226;2023-09-12T00:26:55;14.33;;;11.27;;
359;SDS011;168;48.872;9.226;2023-09-12T00:29:24;14.50;;;11.87;;
359;SDS011;168;48.872;9.226;2023-09-12T00:31:51;14.90;;;11.87;;
359;SDS011;168;48.872;9.226;2023-09-12T00:34:19;17.20;;;12.20;;
359;SDS011;168;48.872;9.226;2023-09-12T00:36:46;12.63;;;11.33;;
359;SDS011;168;48.872;9.226;2023-09-12T00:39:13;16.13;;;12.13;;
359;SDS011;168;48.872;9.226;2023-09-12T00:41:41;12.87;;;11.57;;
359;SDS011;168;48.872;9.226;2023-09-12T00:44:09;12.30;;;11.10;;
359;SDS011;168;48.872;9.226;2023-09-12T00:46:38;14.87;;;11.67;;
359;SDS011;168;48.872;9.226;2023-09-12T00:49:06;13.07;;;11.17;;
359;SDS011;168;48.872;9.226;2023-09-12T00:51:35;14.10;;;11.60;;
359;SDS011;168;48.872;9.226;2023-09-12T00:54:04;13.50;;;12.10;;
359;SDS011;168;48.872;9.226;2023-09-12T00:56:32;16.20;;;10.90;;
359;SDS011;168;48.872;9.226;2023-09-12T00:59:00;12.40;;;11.10;;
359;SDS011;168;48.872;9.226;2023-09-12T01:01:28;12.27;;;11.07;;
359;SDS011;168;48.872;9.226;2023-09-12T01:03:58;14.67;;;11.20;;
359;SDS011;168;48.872;9.226;2023-09-12T01:06:27;12.80;;;10.93;;
359;SDS011;168;48.872;9.226;2023-09-12T01:08:57;15.30;;;12.10;;
359;SDS011;168;48.872;9.226;2023-09-12T01:11:24;15.57;;;11.67;;
359;SDS011;168;48.872;9.226;2023-09-12T01:13:53;12.80;;;11.60;;
359;SDS011;168;48.872;9.226;2023-09-12T01:16:20;12.73;;;11.53;;
359;SDS011;168;48.872;9.226;2023-09-12T01:18:48;13.20;;;10.97;;
359;SDS011;168;48.872;9.226;2023-09-12T01:21:40;15.10;;;12.37;;
359;SDS011;168;48.872;9.226;2023-09-12T01:27:44;13.77;;;12.33;;
359;SDS011;168;48.872;9.226;2023-09-12T01:30:20;14.20;;;12.80;;
359;SDS011;168;48.872;9.226;2023-09-12T01:32:49;15.23;;;13.77;;
359;SDS011;168;48.872;9.226;2023-09-12T01:35:17;13.90;;;12.60;;
359;SDS011;168;48.872;9.226;2023-09-12T01:37:44;13.93;;;12.50;;
359;SDS011;168;48.872;9.226;2023-09-12T01:40:11;12.73;;;11.43;;
359;SDS011;168;48.872;9.226;2023-09-12T01:42:41;13.40;;;12.10;;
359;SDS011;168;48.872;9.226;2023-09-12T01:45:17;13.87;;;12.50;;
359;SDS011;168;48.872;9.226;2023-09-12T01:47:50;12.70;;;11.60;;
359;SDS011;168;48.872;9.226;2023-09-12T01:50:26;15.77;;;12.60;;
359;SDS011;168;48.872;9.226;2023-09-12T01:52:57;15.53;;;13.00;;
359;SDS011;168;48.872;9.226;2023-09-12T01:55:39;13.90;;;12.37;;
359;SDS011;168;48.872;9.226;2023-09-12T01:58:10;13.77;;;12.23;;
359;SDS011;168;48.872;9.226;2023-09-12T02:00:38;14.10;;;12.60;;
359;SDS011;168;48.872;9.226;2023-09-12T02:03:07;13.60;;;11.90;;
359;SDS011;168;48.872;9.226;2023-09-12T02:05:34;16.57;;;11.70;;
359;SDS011;168;48.872;9.226;2023-09-12T02:08:03;13.33;;;12.13;;
359;SDS011;168;48.872;9.226;2023-09-12T02:10:30;12.40;;;11.27;;
359;SDS011;168;48.872;9.226;2023-09-12T02:12:58;14.47;;;12.57;;
359;SDS011;168;48.872;9.226;2023-09-12T02:15:27;13.67;;;11.30;;
359;SDS011;168;48.872;9.226;2023-09-12T02:17:54;13.27;;;11.97;;
359;SDS011;168;48.872;9.226;2023-09-12T02:20:22;13.30;;;12.00;;
359;SDS011;168;48.872;9.226;2023-09-12T02:22:49;14.20;;;12.30;;
359;SDS011;168;48.872;9.226;2023-09-12T02:25:16;13.93;;;12.37;;
359;SDS011;168;48.872;9.226;2023-09-12T02:27:44;13.13;;;11.83;;
359;SDS011;168;48.872;9.226;2023-09-12T02:30:11;14.60;;;12.70;;
359;SDS011;168;48.872;9.226;2023-09-12T02:32:42;14.40;;;12.73;;
359;SDS011;168;48.872;9.226;2023-09-12T02:35:09;14.33;;;12.93;;
359;SDS011;168;48.872;9.226;2023-09-12T02:37:37;14.37;;;12.93;;
359;SDS011;168;48.872;9.226;2023-09-12T02:40:05;16.27;;;12.53;;
359;SDS011;168;48.872;9.226;2023-09-12T02:42:33;14.30;;;12.90;;
359;SDS011;168;48.872;9.226;2023-09-12T02:45:02;13.83;;;12.50;;
359;SDS011;168;48.872;9.226;2023-09-12T02:47:30;12.73;;;11.47;;
359;SDS011;168;48.872;9.226;2023-09-12T02:50:00;13.83;;;12.50;;
359;SDS011;168;48.872;9.226;2023-09-12T02:52:28;13.57;;;11.93;;
359;SDS011;168;48.872;9.226;2023-09-12T02:54:56;15.27;;;13.67;;
359;SDS011;168;48.872;9.226;2023-09-12T02:57:23;16.00;;;14.00;;
359;SDS011;168;48.872;9.226;2023-09-12T02:59:50;17.30;;;13.10;;
359;SDS011;168;48.872;9.226;2023-09-12T03:02:18;13.50;;;12.07;;
359;SDS011;168;48.872;9.226;2023-09-12T03:04:45;13.50;;;12.20;;
359;SDS011;168;48.872;9.226;2023-09-12T03:07:14;14.80;;;13.30;;
359;SDS011;168;48.872;9.226;2023-09-12T03:09:52;13.87;;;12.47;;
359;SDS011;168;48.872;9.226;2023-09-12T03:12:38;14.60;;;13.10;;
359;SDS011;168;48.872;9.226;2023-09-12T03:15:06;12.97;;;11.67;;
359;SDS011;168;48.872;9.226;2023-09-12T03:17:34;15.60;;;13.00;;
359;SDS011;168;48.872;9.226;2023-09-12T03:20:02;14.50;;;13.00;;
359;SDS011;168;48.872;9.226;2023-09-12T03:22:33;13.60;;;11.87;;
359;SDS011;168;48.872;9.226;2023-09-12T03:25:03;13.77;;;12.27;;
359;SDS011;168;48.872;9.226;2023-09-12T03:27:31;14.53;;;12.50;;
359;SDS011;168;48.872;9.226;2023-09-12T03:29:59;12.53;;;11.30;;
359;SDS011;168;48.872;9.226;2023-09-12T03:32:26;14.30;;;13.00;;
359;SDS011;168;48.872;9.226;2023-09-12T03:34:53;14.23;;;12.33;;
359;SDS011;168;48.872;9.226;2023-09-12T03:37:21;13.50;;;12.27;;
359;SDS011;168;48.872;9.226;2023-09-12T03:39:49;14.97;;;13.47;;
359;SDS011;168;48.872;9.226;2023-09-12T03:42:17;13.47;;;12.07;;
359;SDS011;168;48.872;9.226;2023-09-12T03:44:44;16.50;;;13.00;;
359;SDS011;168;48.872;9.226;2023-09-12T03:47:11;16.30;;;13.50;;
359;SDS011;168;48.872;9.226;2023-09-12T03:49:38;15.10;;;13.60;;
359;SDS011;168;48.872;9.226;2023-09-12T03:52:06;15.67;;;11.90;;
359;SDS011;168;48.872;9.226;2023-09-12T03:54:33;13.83;;;12.17;;
359;SDS011;168;48.872;9.226;2023-09-12T03:57:02;17.03;;;13.20;;
359;SDS011;168;48.872;9.226;2023-09-12T03:59:30;13.90;;;12.37;;
359;SDS011;168;48.872;9.226;2023-09-12T04:01:57;14.00;;;12.60;;
359;SDS011;168;48.872;9.226;2023-09-12T04:04:24;13.47;;;12.27;;
359;SDS011;168;48.872;9.226;2023-09-12T04:06:52;13.80;;;12.30;;
359;SDS011;168;48.872;9.226;2023-09-12T04:09:20;13.37;;;12.00;;
359;SDS011;168;48.872;9.226;2023-09-12T04:11:47;14.10;;;12.90;;
359;SDS011;168;48.872;9.226;2023-09-12T04:14:16;17.00;;;13.07;;
359;SDS011;168;48.872;9.226;2023-09-12T04:16:43;14.70;;;12.90;;
359;SDS011;168;48.872;9.226;2023-09-12T04:19:11;14.70;;;13.20;;
359;SDS011;168;48.872;9.226;2023-09-12T04:21:38;13.87;;;12.37;;
359;SDS011;168;48.872;9.226;2023-09-12T04:24:06;13.03;;;11.73;;
359;SDS011;168;48.872;9.226;2023-09-12T04:26:34;13.20;;;11.90;;
359;SDS011;168;48.872;9.226;2023-09-12T04:29:01;13.90;;;12.60;;
359;SDS011;168;48.872;9.226;2023-09-12T04:31:30;13.17;;;11.90;;
359;SDS011;168;48.872;9.226;2023-09-12T04:33:58;14.40;;;12.90;;
359;SDS011;168;48.872;9.226;2023-09-12T04:36:25;14.77;;;13.20;;
359;SDS011;168;48.872;9.226;2023-09-12T04:38:52;14.00;;;12.10;;
359;SDS011;168;48.872;9.226;2023-09-12T04:41:20;13.73;;;12.23;;
359;SDS011;168;48.872;9.226;2023-09-12T04:43:47;14.37;;;12.50;;
359;SDS011;168;48.872;9.226;2023-09-12T04:46:14;13.10;;;11.77;;
359;SDS011;168;48.872;9.226;2023-09-12T04:48:43;15.53;;;13.87;;
359;SDS011;168;48.872;9.226;2023-09-12T04:51:10;13.80;;;12.50;;
359;SDS011;168;48.872;9.226;2023-09-12T04:53:38;16.00;;;13.60;;
359;SDS011;168;48.872;9.226;2023-09-12T04:56:05;13.70;;;12.23;;
359;SDS011;168;48.872;9.226;2023-09-12T04:58:35;13.97;;;12.30;;
359;SDS011;168;48.872;9.226;2023-09-12T05:01:02;12.83;;;11.63;;
359;SDS011;168;48.872;9.226;2023-09-12T05:03:30;12.20;;;11.10;;
359;SDS011;168;48.872;9.226;2023-09-12T05:06:00;14.20;;;12.73;;
359;SDS011;168;48.872;9.226;2023-09-12T05:08:29;12.90;;;11.50;;
359;SDS011;168;48.872;9.226;2023-09-12T05:10:56;14.80;;;12.80;;
359;SDS011;168;48.872;9.226;2023-09-12T05:13:23;14.67;;;12.47;;
359;SDS011;168;48.872;9.226;2023-09-12T05:15:51;14.47;;;13.00;;
359;SDS011;168;48.872;9.226;2023-09-12T05:18:18;13.53;;;12.10;;
359;SDS011;168;48.872;9.226;2023-09-12T05:20:45;14.67;;;13.17;;
359;SDS011;168;48.872;9.226;2023-09-12T05:23:14;14.37;;;12.03;;
359;SDS011;168;48.872;9.226;2023-09-12T05:25:44;13.50;;;12.23;;
359;SDS011;168;48.872;9.226;2023-09-12T05:28:11;16.30;;;13.37;;
359;SDS011;168;48.872;9.226;2023-09-12T05:30:41;14.73;;;12.60;;
359;SDS011;168;48.872;9.226;2023-09-12T05:33:12;13.57;;;12.27;;
359;SDS011;168;48.872;9.226;2023-09-12T05:35:43;12.87;;;11.60;;
359;SDS011;168;48.872;9.226;2023-09-12T05:38:10;17.13;;;12.77;;
359;SDS011;168;48.872;9.226;2023-09-12T05:40:50;14.03;;;12.63;;
359;SDS011;168;48.872;9.226;2023-09-12T05:43:18;13.00;;;11.70;;
359;SDS011;168;48.872;9.226;2023-09-12T05:45:46;14.60;;;12.90;;
359;SDS011;168;48.872;9.226;2023-09-12T05:48:13;13.87;;;11.90;;
359;SDS011;168;48.872;9.226;2023-09-12T05:50:40;14.03;;;12.73;;
359;SDS011;168;48.872;9.226;2023-09-12T05:53:07;13.37;;;12.03;;
359;SDS011;168;48.872;9.226;2023-09-12T05:55:35;14.67;;;12.97;;
359;SDS011;168;48.872;9.226;2023-09-12T05:58:04;12.80;;;11.60;;
359;SDS011;168;48.872;9.226;2023-09-12T06:00:32;13.07;;;11.47;;
359;SDS011;168;48.872;9.226;2023-09-12T06:02:59;13.37;;;11.23;;
359;SDS011;168;48.872;9.226;2023-09-12T06:05:27;13.07;;;11.67;;
359;SDS011;168;48.872;9.226;2023-09-12T06:07:57;13.13;;;11.93;;
359;SDS011;168;48.872;9.226;2023-09-12T06:10:25;12.87;;;11.30;;
359;SDS011;168;48.872;9.226;2023-09-12T06:12:53;13.40;;;12.20;;
359;SDS011;168;48.872;9.226;2023-09-12T06:15:23;13.10;;;11.90;;
359;SDS011;168;48.872;9.226;2023-09-12T06:17:50;17.23;;;12.60;;
359;SDS011;168;48.872;9.226;2023-09-12T06:20:18;13.80;;;12.40;;
359;SDS011;168;48.872;9.226;2023-09-12T06:22:45;12.57;;;11.20;;
359;SDS011;168;48.872;9.226;2023-09-12T06:25:13;13.07;;;11.77;;
359;SDS011;168;48.872;9.226;2023-09-12T06:27:40;13.37;;;12.07;;
359;SDS011;168;48.872;9.226;2023-09-12T06:30:08;12.87;;;11.57;;
359;SDS011;168;48.872;9.226;2023-09-12T06:32:37;13.80;;;12.30;;
359;SDS011;168;48.872;9.226;2023-09-12T06:35:05;13.07;;;11.63;;
359;SDS011;168;48.872;9.226;2023-09-12T06:37:33;12.87;;;11.57;;
359;SDS011;168;48.872;9.226;2023-09-12T06:40:00;14.07;;;12.57;;
359;SDS011;168;48.872;9.226;2023-09-12T06:42:28;13.60;;;12.30;;
359;SDS011;168;48.872;9.226;2023-09-12T06:44:56;12.70;;;11.37;;
359;SDS011;168;48.872;9.226;2023-09-12T06:47:23;11.70;;;10.57;;
359;SDS011;168;48.872;9.226;2023-09-12T06:49:52;13.17;;;11.90;;
359;SDS011;168;48.872;9.226;2023-09-12T06:52:19;14.57;;;11.70;;
359;SDS011;168;48.872;9.226;2023-09-12T06:54:47;12.83;;;11.10;;
359;SDS011;168;48.872;9.226;2023-09-12T06:57:14;13.03;;;11.50;;
359;SDS011;168;48.872;9.226;2023-09-12T06:59:42;12.23;;;11.00;;
359;SDS011;168;48.872;9.226;2023-09-12T07:02:09;12.50;;;11.20;;
359;SDS011;168;48.872;9.226;2023-09-12T07:04:38;15.03;;;13.50;;
359;SDS011;168;48.872;9.226;2023-09-12T07:07:07;13.70;;;12.40;;
359;SDS011;168;48.872;9.226;2023-09-12T07:09:34;12.70;;;11.50;;
359;SDS011;168;48.872;9.226;2023-09-12T07:12:02;11.83;;;10.83;;
359;SDS011;168;48.872;9.226;2023-09-12T07:14:31;13.53;;;12.07;;
359;SDS011;168;48.872;9.226;2023-09-12T07:16:58;13.90;;;11.80;;
359;SDS011;168;48.872;9.226;2023-09-12T07:19:26;13.17;;;12.07;;
359;SDS011;168;48.872;9.226;2023-09-12T07:21:54;11.27;;;10.10;;
359;SDS011;168;48.872;9.226;2023-09-12T07:24:26;14.10;;;12.70;;
359;SDS011;168;48.872;9.226;2023-09-12T07:26:53;12.93;;;11.73;;
359;SDS011;168;48.872;9.226;2023-09-12T07:29:21;15.50;;;11.13;;
359;SDS011;168;48.872;9.226;2023-09-12T07:31:51;13.70;;;12.50;;
359;SDS011;168;48.872;9.226;2023-09-12T07:34:19;12.40;;;11.20;;
359;SDS011;168;48.872;9.226;2023-09-12T07:36:46;14.37;;;11.90;;
359;SDS011;168;48.872;9.226;2023-09-12T07:39:14;14.13;;;12.63;;
359;SDS011;168;48.872;9.226;2023-09-12T07:41:42;13.47;;;12.17;;
359;SDS011;168;48.872;9.226;2023-09-12T07:44:10;12.47;;;11.27;;
359;SDS011;168;48.872;9.226;2023-09-12T07:46:37;13.20;;;11.90;;
359;SDS011;168;48.872;9.226;2023-09-12T07:49:05;12.17;;;11.07;;
359;SDS011;168;48.872;9.226;2023-09-12T07:51:34;13.03;;;11.77;;
359;SDS011;168;48.872;9.226;2023-09-12T07:54:02;13.17;;;11.17;;
359;SDS011;168;48.872;9.226;2023-09-12T07:56:30;12.33;;;11.27;;
359;SDS011;168;48.872;9.226;2023-09-12T07:59:14;12.97;;;11.63;;
359;SDS011;168;48.872;9.226;2023-09-12T08:01:42;14.00;;;12.80;;
359;SDS011;168;48.872;9.226;2023-09-12T08:04:09;15.10;;;12.07;;
359;SDS011;168;48.872;9.226;2023-09-12T08:06:37;13.67;;;12.20;;
359;SDS011;168;48.872;9.226;2023-09-12T08:09:04;13.37;;;12.00;;
359;SDS011;168;48.872;9.226;2023-09-12T08:11:32;15.50;;;12.97;;
359;SDS011;168;48.872;9.226;2023-09-12T08:13:59;12.40;;;11.40;;
359;SDS011;168;48.872;9.226;2023-09-12T08:16:28;12.83;;;11.63;;
359;SDS011;168;48.872;9.226;2023-09-12T08:18:56;14.43;;;12.60;;
359;SDS011;168;48.872;9.226;2023-09-12T08:21:24;14.07;;;12.80;;
359;SDS011;168;48.872;9.226;2023-09-12T08:23:51;13.50;;;11.27;;
359;SDS011;168;48.872;9.226;2023-09-12T08:26:19;13.10;;;10.60;;
359;SDS011;168;48.872;9.226;2023-09-12T08:28:46;12.53;;;11.30;;
359;SDS011;168;48.872;9.226;2023-09-12T08:31:13;11.80;;;10.80;;
359;SDS011;168;48.872;9.226;2023-09-12T08:33:42;13.07;;;11.90;;
359;SDS011;168;48.872;9.226;2023-09-12T08:36:09;13.07;;;11.47;;
359;SDS011;168;48.872;9.226;2023-09-12T08:38:36;11.63;;;10.53;;
359;SDS011;168;48.872;9.226;2023-09-12T08:41:05;11.87;;;10.80;;
359;SDS011;168;48.872;9.226;2023-09-12T08:43:32;12.67;;;11.53;;
359;SDS011;168;48.872;9.226;2023-09-12T08:46:00;12.60;;;11.50;;
359;SDS011;168;48.872;9.226;2023-09-12T08:48:27;14.63;;;13.03;;
359;SDS011;168;48.872;9.226;2023-09-12T08:50:58;11.67;;;10.63;;
359;SDS011;168;48.872;9.226;2023-09-12T08:53:28;13.10;;;11.10;;
359;SDS011;168;48.872;9.226;2023-09-12T08:55:56;12.23;;;11.13;;
359;SDS011;168;48.872;9.226;2023-09-12T08:58:24;11.60;;;10.40;;
359;SDS011;168;48.872;9.226;2023-09-12T09:00:52;13.30;;;12.10;;
359;SDS011;168;48.872;9.226;2023-09-12T09:03:20;13.73;;;12.33;;
359;SDS011;168;48.872;9.226;2023-09-12T09:05:49;14.93;;;12.43;;
359;SDS011;168;48.872;9.226;2023-09-12T09:08:19;18.30;;;16.37;;
359;SDS011;168;48.872;9.226;2023-09-12T09:10:54;15.00;;;12.53;;
359;SDS011;168;48.872;9.226;2023-09-12T09:13:22;15.10;;;12.30;;
359;SDS011;168;48.872;9.226;2023-09-12T09:15:51;13.90;;;12.53;;
359;SDS011;168;48.872;9.226;2023-09-12T09:18:49;13.73;;;11.17;;
359;SDS011;168;48.872;9.226;2023-09-12T09:21:17;12.27;;;10.40;;
359;SDS011;168;48.872;9.226;2023-09-12T09:23:46;17.10;;;12.27;;
359;SDS011;168;48.872;9.226;2023-09-12T09:26:14;12.67;;;11.03;;
359;SDS011;168;48.872;9.226;2023-09-12T09:28:41;19.33;;;11.83;;
359;SDS011;168;48.872;9.226;2023-09-12T09:31:12;12.17;;;10.90;;
359;SDS011;168;48.872;9.226;2023-09-12T09:33:41;11.67;;;10.57;;
359;SDS011;168;48.872;9.226;2023-09-12T09:36:14;12.20;;;11.10;;
359;SDS011;168;48.872;9.226;2023-09-12T09:38:41;12.50;;;11.20;;
359;SDS011;168;48.872;9.226;2023-09-12T09:41:11;11.90;;;10.70;;
359;SDS011;168;48.872;9.226;2023-09-12T09:43:38;13.13;;;11.77;;
359;SDS011;168;48.872;9.226;2023-09-12T09:46:06;11.37;;;10.10;;
359;SDS011;168;48.872;9.226;2023-09-12T09:48:33;11.03;;;10.03;;
359;SDS011;168;48.872;9.226;2023-09-12T09:51:02;10.90;;;9.93;;
359;SDS011;168;48.872;9.226;2023-09-12T09:53:30;11.60;;;10.57;;
359;SDS011;168;48.872;9.226;2023-09-12T09:56:07;13.47;;;12.17;;
359;SDS011;168;48.872;9.226;2023-09-12T09:58:37;11.50;;;10.10;;
359;SDS011;168;48.872;9.226;2023-09-12T10:01:12;11.27;;;10.20;;
359;SDS011;168;48.872;9.226;2023-09-12T10:03:43;10.77;;;9.77;;
359;SDS011;168;48.872;9.226;2023-09-12T10:06:13;10.17;;;9.20;;
359;SDS011;168;48.872;9.226;2023-09-12T10:08:43;10.53;;;9.47;;
359;SDS011;168;48.872;9.226;2023-09-12T10:11:12;13.80;;;10.53;;
359;SDS011;168;48.872;9.226;2023-09-12T10:13:45;11.70;;;10.50;;
359;SDS011;168;48.872;9.226;2023-09-12T10:16:15;11.87;;;10.27;;
359;SDS011;168;48.872;9.226;2023-09-12T10:18:46;10.63;;;9.63;;
359;SDS011;168;48.872;9.226;2023-09-12T10:21:20;11.03;;;9.93;;
359;SDS011;168;48.872;9.226;2023-09-12T10:23:54;11.80;;;10.40;;
359;SDS011;168;48.872;9.226;2023-09-12T10:26:24;10.40;;;9.40;;
359;SDS011;168;48.872;9.226;2023-09-12T10:28:53;12.63;;;9.67;;
359;SDS011;168;48.872;9.226;2023-09-12T10:31:21;10.70;;;9.70;;
359;SDS011;168;48.872;9.226;2023-09-12T10:33:50;9.80;;;8.83;;
359;SDS011;168;48.872;9.226;2023-09-12T10:36:19;11.63;;;8.93;;
359;SDS011;168;48.872;9.226;2023-09-12T10:38:48;10.50;;;9.40;;
359;SDS011;168;48.872;9.226;2023-09-12T10:41:15;10.20;;;9.37;;
359;SDS011;168;48.872;9.226;2023-09-12T10:43:44;11.70;;;10.70;;
359;SDS011;168;48.872;9.226;2023-09-12T10:46:19;13.60;;;9.97;;
359;SDS011;168;48.872;9.226;2023-09-12T10:48:46;11.20;;;9.83;;
359;SDS011;168;48.872;9.226;2023-09-12T10:51:15;11.73;;;9.30;;
359;SDS011;168;48.872;9.226;2023-09-12T10:53:46;12.77;;;9.73;;
359;SDS011;168;48.872;9.226;2023-09-12T10:56:18;10.70;;;9.80;;
359;SDS011;168;48.872;9.226;2023-09-12T11:01:39;10.63;;;9.73;;
359;SDS011;168;48.872;9.226;2023-09-12T11:07:00;9.73;;;8.63;;
359;SDS011;168;48.872;9.226;2023-09-12T11:09:27;10.50;;;9.07;;
359;SDS011;168;48.872;9.226;2023-09-12T11:11:56;9.13;;;8.30;;
359;SDS011;168;48.872;9.226;2023-09-12T11:14:25;12.83;;;9.13;;
359;SDS011;168;48.872;9.226;2023-09-12T11:19:49;9.97;;;8.87;;
359;SDS011;168;48.872;9.226;2023-09-12T11:22:25;10.30;;;9.20;;
359;SDS011;168;48.872;9.226;2023-09-12T11:24:53;13.33;;;10.20;;
359;SDS011;168;48.872;9.226;2023-09-12T11:27:22;10.50;;;9.47;;
359;SDS011;168;48.872;9.226;2023-09-12T11:29:50;11.97;;;9.80;;
359;SDS011;168;48.872;9.226;2023-09-12T11:32:26;9.47;;;8.50;;
359;SDS011;168;48.872;9.226;2023-09-12T11:34:56;11.40;;;10.17;;
359;SDS011;168;48.872;9.226;2023-09-12T11:37:26;10.53;;;9.50;;
359;SDS011;168;48.872;9.226;2023-09-12T11:39:55;10.40;;;9.50;;
359;SDS011;168;48.872;9.226;2023-09-12T11:42:24;11.03;;;9.93;;
359;SDS011;168;48.872;9.226;2023-09-12T11:44:52;10.37;;;9.37;;
359;SDS011;168;48.872;9.226;2023-09-12T11:47:19;12.20;;;9.77;;
359;SDS011;168;48.872;9.226;2023-09-12T11:49:48;12.20;;;9.20;;
359;SDS011;168;48.872;9.226;2023-09-12T11:52:16;9.97;;;9.07;;
359;SDS011;168;48.872;9.226;2023-09-12T11:54:45;10.63;;;9.43;;
359;SDS011;168;48.872;9.226;2023-09-12T11:57:12;8.97;;;8.27;;
359;SDS011;168;48.872;9.226;2023-09-12T11:59:41;10.73;;;9.73;;
359;SDS011;168;48.872;9.226;2023-09-12T12:02:11;9.90;;;9.00;;
359;SDS011;168;48.872;9.226;2023-09-12T12:04:38;11.70;;;9.80;;
359;SDS011;168;48.872;9.226;2023-09-12T12:07:07;11.40;;;9.30;;
359;SDS011;168;48.872;9.226;2023-09-12T12:09:36;10.90;;;9.80;;
359;SDS011;168;48.872;9.226;2023-09-12T12:12:04;20.73;;;11.40;;
359;SDS011;168;48.872;9.226;2023-09-12T12:14:35;10.27;;;9.27;;
359;SDS011;168;48.872;9.226;2023-09-12T12:17:06;9.50;;;8.60;;
359;SDS011;168;48.872;9.226;2023-09-12T12:19:35;9.10;;;8.27;;
359;SDS011;168;48.872;9.226;2023-09-12T12:22:03;9.40;;;8.60;;
359;SDS011;168;48.872;9.226;2023-09-12T12:24:37;8.60;;;7.87;;
359;SDS011;168;48.872;9.226;2023-09-12T12:27:06;9.47;;;8.57;;
359;SDS011;168;48.872;9.226;2023-09-12T12:29:36;9.63;;;8.63;;
359;SDS011;168;48.872;9.226;2023-09-12T12:32:05;10.20;;;9.30;;
359;SDS011;168;48.872;9.226;2023-09-12T12:34:34;10.30;;;9.27;;
359;SDS011;168;48.872;9.226;2023-09-12T12:37:02;11.00;;;9.33;;
359;SDS011;168;48.872;9.226;2023-09-12T12:39:31;10.10;;;9.10;;
359;SDS011;168;48.872;9.226;2023-09-12T12:42:00;9.17;;;8.30;;
359;SDS011;168;48.872;9.226;2023-09-12T12:44:35;9.83;;;8.93;;
359;SDS011;168;48.872;9.226;2023-09-12T12:47:08;9.93;;;8.27;;
359;SDS011;168;48.872;9.226;2023-09-12T12:49:38;10.43;;;9.30;;
359;SDS011;168;48.872;9.226;2023-09-12T12:52:08;11.40;;;8.40;;
359;SDS011;168;48.872;9.226;2023-09-12T12:54:37;10.40;;;8.83;;
359;SDS011;168;48.872;9.226;2023-09-12T12:57:06;10.10;;;9.10;;
359;SDS011;168;48.872;9.226;2023-09-12T12:59:38;9.20;;;8.30;;
359;SDS011;168;48.872;9.226;2023-09-12T13:02:05;9.00;;;8.10;;
359;SDS011;168;48.872;9.226;2023-09-12T13:04:35;10.30;;;8.73;;
359;SDS011;168;48.872;9.226;2023-09-12T13:07:03;9.67;;;8.67;;
359;SDS011;168;48.872;9.226;2023-09-12T13:09:32;10.30;;;9.40;;
359;SDS011;168;48.872;9.226;2023-09-12T13:11:59;10.10;;;9.10;;
359;SDS011;168;48.872;9.226;2023-09-12T13:14:28;9.53;;;8.07;;
359;SDS011;168;48.872;9.226;2023-09-12T13:16:57;11.27;;;10.07;;
359;SDS011;168;48.872;9.226;2023-09-12T13:19:24;9.90;;;9.00;;
359;SDS011;168;48.872;9.226;2023-09-12T13:21:52;8.87;;;8.07;;
359;SDS011;168;48.872;9.226;2023-09-12T13:24:20;11.00;;;9.30;;
359;SDS011;168;48.872;9.226;2023-09-12T13:26:47;9.43;;;8.60;;
359;SDS011;168;48.872;9.226;2023-09-12T13:29:14;9.60;;;8.80;;
359;SDS011;168;48.872;9.226;2023-09-12T13:31:43;9.73;;;8.70;;
359;SDS011;168;48.872;9.226;2023-09-12T13:34:10;10.30;;;8.93;;
359;SDS011;168;48.872;9.226;2023-09-12T13:36:37;9.00;;;8.10;;
359;SDS011;168;48.872;9.226;2023-09-12T13:39:06;9.53;;;8.57;;
359;SDS011;168;48.872;9.226;2023-09-12T13:41:33;9.63;;;8.60;;
359;SDS011;168;48.872;9.226;2023-09-12T13:44:01;9.60;;;8.80;;
359;SDS011;168;48.872;9.226;2023-09-12T13:46:29;10.47;;;8.80;;
359;SDS011;168;48.872;9.226;2023-09-12T13:48:58;10.07;;;9.20;;
359;SDS011;168;48.872;9.226;2023-09-12T13:51:28;9.97;;;9.03;;
359;SDS011;168;48.872;9.226;2023-09-12T13:53:56;11.30;;;9.27;;
359;SDS011;168;48.872;9.226;2023-09-12T13:56:23;9.90;;;9.00;;
359;SDS011;168;48.872;9.226;2023-09-12T13:58:51;10.10;;;9.13;;
359;SDS011;168;48.872;9.226;2023-09-12T14:01:18;10.50;;;9.50;;
359;SDS011;168;48.872;9.226;2023-09-12T14:03:46;10.43;;;9.60;;
359;SDS011;168;48.872;9.226;2023-09-12T14:06:15;10.33;;;9.40;;
359;SDS011;168;48.872;9.226;2023-09-12T14:08:42;10.50;;;9.50;;
359;SDS011;168;48.872;9.226;2023-09-12T14:11:10;10.83;;;9.77;;
359;SDS011;168;48.872;9.226;2023-09-12T14:13:37;11.03;;;10.03;;
359;SDS011;168;48.872;9.226;2023-09-12T14:16:05;11.13;;;10.03;;
359;SDS011;168;48.872;9.226;2023-09-12T14:18:32;11.63;;;9.87;;
359;SDS011;168;48.872;9.226;2023-09-12T14:20:59;11.07;;;10.03;;
359;SDS011;168;48.872;9.226;2023-09-12T14:23:28;10.47;;;9.47;;
359;SDS011;168;48.872;9.226;2023-09-12T14:25:56;12.30;;;10.00;;
359;SDS011;168;48.872;9.226;2023-09-12T14:28:23;10.77;;;9.67;;
359;SDS011;168;48.872;9.226;2023-09-12T14:30:50;11.97;;;10.43;;
359;SDS011;168;48.872;9.226;2023-09-12T14:33:18;10.73;;;9.70;;
359;SDS011;168;48.872;9.226;2023-09-12T14:35:46;11.50;;;9.10;;
359;SDS011;168;48.872;9.226;2023-09-12T14:38:14;13.43;;;10.00;;
359;SDS011;168;48.872;9.226;2023-09-12T14:40:43;10.23;;;9.27;;
359;SDS011;168;48.872;9.226;2023-09-12T14:43:11;10.03;;;9.03;;
359;SDS011;168;48.872;9.226;2023-09-12T14:45:38;9.90;;;9.00;;
359;SDS011;168;48.872;9.226;2023-09-12T14:48:06;10.57;;;9.30;;
359;SDS011;168;48.872;9.226;2023-09-12T14:50:33;10.23;;;9.20;;
359;SDS011;168;48.872;9.226;2023-09-12T14:53:01;9.90;;;9.10;;
359;SDS011;168;48.872;9.226;2023-09-12T14:55:28;10.70;;;9.60;;
359;SDS011;168;48.872;9.226;2023-09-12T14:57:57;10.20;;;9.20;;
359;SDS011;168;48.872;9.226;2023-09-12T15:00:25;10.00;;;9.10;;
359;SDS011;168;48.872;9.226;2023-09-12T15:02:53;11.00;;;9.90;;
359;SDS011;168;48.872;9.226;2023-09-12T15:05:21;10.47;;;9.53;;
359;SDS011;168;48.872;9.226;2023-09-12T15:07:48;9.40;;;8.60;;
359;SDS011;168;48.872;9.226;2023-09-12T15:10:16;9.67;;;8.80;;
359;SDS011;168;48.872;9.226;2023-09-12T15:12:44;9.97;;;8.97;;
359;SDS011;168;48.872;9.226;2023-09-12T15:15:13;9.70;;;8.77;;
359;SDS011;168;48.872;9.226;2023-09-12T15:17:40;9.50;;;8.70;;
359;SDS011;168;48.872;9.226;2023-09-12T15:20:08;9.83;;;8.87;;
359;SDS011;168;48.872;9.226;2023-09-12T15:22:36;9.60;;;8.70;;
359;SDS011;168;48.872;9.226;2023-09-12T15:25:04;9.63;;;8.50;;
359;SDS011;168;48.872;9.226;2023-09-12T15:27:32;10.90;;;9.97;;
359;SDS011;168;48.872;9.226;2023-09-12T15:30:01;10.23;;;9.03;;
359;SDS011;168;48.872;9.226;2023-09-12T15:32:31;16.33;;;9.27;;
359;SDS011;168;48.872;9.226;2023-09-12T15:34:58;9.33;;;8.53;;
359;SDS011;168;48.872;9.226;2023-09-12T15:37:25;9.30;;;8.40;;
359;SDS011;168;48.872;9.226;2023-09-12T15:39:53;9.57;;;8.60;;
359;SDS011;168;48.872;9.226;2023-09-12T15:42:20;9.77;;;8.97;;
359;SDS011;168;48.872;9.226;2023-09-12T15:44:48;10.83;;;8.53;;